Latest Weather Observations for Albion Park

IDN60801

Issued at 1:32 pm EST Sunday 30 August 2015 (issued every 30 minutes, with the page automatically refreshed every 10 minutes)

About weather observations | Map of weather stations | Latest weather observations for NSW | Other Formats
Station Details ID: 068241 Name: WOLLONGONG AIRPORT Lat: -34.56 Lon: 150.79 Height: 8.0 m
Data from the previous 72 hours. | See also: Recent months at Albion Park
Date/Time
EST
Temp
°C
App
Temp
°C
Dew
Point
Rel
Hum
%
Delta-T
°C
Wind Press
QNH
hPa
Press
MSL
hPa
Rain
since 9 am
mm
Dir
 
Spd
km/h
Gust
km/h
Spd
kts
Gust
kts
30/01:30pm 17.0 13.5 7.1 52 4.9 S 15 28 8 15 1017.9 1017.9 0.0
30/01:00pm 16.3 11.6 6.2 51 4.9 S 20 26 11 14 1018.3 1018.3 0.0
30/12:30pm 16.6 12.1 6.1 50 5.1 SW 19 30 10 16 1018.6 1018.6 0.0
30/12:00pm 16.4 11.8 5.7 49 5.1 SW 19 28 10 15 1019.2 1019.2 0.0
30/11:30am 16.2 11.9 5.2 48 5.2 SW 17 26 9 14 1019.6 1019.6 0.0
30/11:00am 16.0 11.3 5.3 49 5.1 SSW 19 28 10 15 1019.9 1019.9 0.0
30/10:30am 15.6 10.8 5.8 52 4.7 SSW 20 28 11 15 1020.0 1020.0 0.0
30/10:00am 15.3 12.4 4.7 49 4.9 SW 9 17 5 9 1020.2 1020.2 0.0
30/09:30am 14.7 11.4 4.7 51 4.7 S 11 22 6 12 1020.1 1020.1 0.0
30/09:00am 14.2 11.2 3.9 50 4.7 SSW 9 17 5 9 1020.3 1020.3 0.0
30/08:30am 13.3 10.7 4.2 54 4.1 NW 7 11 4 6 1020.1 1020.1 0.0
30/08:00am 11.5 9.5 4.3 61 3.2 S 4 7 2 4 1020.1 1020.1 0.0
30/07:30am 9.0 7.7 4.2 72 2.1 CALM 0 0 0 0 1020.0 1020.0 0.0
30/07:00am 7.5 6.3 4.5 81 1.3 CALM 0 4 0 2 1019.8 1019.8 0.0
30/06:30am 6.2 2.6 3.2 81 1.3 WSW 11 15 6 8 1019.6 1019.6 0.0
30/06:00am 7.8 3.5 3.1 72 2.0 W 15 17 8 9 1019.5 1019.5 0.0
30/05:30am 7.8 4.6 3.3 73 1.9 WSW 9 11 5 6 1019.4 1019.4 0.0
30/05:00am 8.6 3.9 3.0 68 2.4 WSW 17 20 9 11 1019.4 1019.4 0.0
30/04:30am 7.6 3.2 2.9 72 2.0 WSW 15 19 8 10 1019.3 1019.3 0.0
30/04:00am 7.7 4.2 3.4 74 1.8 SW 11 17 6 9 1019.3 1019.3 0.0
30/03:30am 6.3 4.5 3.5 82 1.2 SSW 2 6 1 3 1019.3 1019.3 0.0
30/03:00am 6.6 3.9 3.6 81 1.3 SSW 7 11 4 6 1019.5 1019.5 0.0
30/02:30am 7.4 4.3 3.6 77 1.6 ENE 9 9 5 5 1019.8 1019.8 0.0
30/02:00am 8.0 4.9 3.5 73 1.9 SSW 9 11 5 6 1020.1 1020.1 0.0
30/01:30am 9.9 3.9 3.2 63 2.9 WSW 24 30 13 16 1020.3 1020.3 0.0
30/01:00am 9.9 5.2 3.4 64 2.8 WSW 17 30 9 16 1020.4 1020.4 0.0
30/12:30am 9.3 5.4 3.5 67 2.5 W 13 19 7 10 1020.5 1020.5 0.0
30/12:00am 9.7 5.0 3.2 64 2.8 W 17 22 9 12 1020.5 1020.5 0.0
 
Date/Time
EST
Temp
°C
App
Temp
°C
Dew
Point
Rel
Hum
%
Delta-T
°C
Wind Press
QNH
hPa
Press
MSL
hPa
Rain
since 9 am
mm
Dir
 
Spd
km/h
Gust
km/h
Spd
kts
Gust
kts
29/11:30pm 10.0 4.9 3.3 63 2.9 W 19 22 10 12 1020.5 1020.5 0.0
29/11:00pm 10.1 5.8 3.2 62 3.0 WNW 15 19 8 10 1020.7 1020.7 0.0
29/10:30pm 10.4 5.3 3.2 61 3.1 WSW 19 24 10 13 1020.7 1020.7 0.0
29/10:00pm 10.5 5.9 3.5 62 3.1 W 17 26 9 14 1020.9 1020.9 0.0
29/09:30pm 10.6 8.0 3.4 61 3.1 W 6 11 3 6 1021.0 1021.0 0.0
29/09:00pm 10.7 6.4 3.5 61 3.1 WSW 15 19 8 10 1020.9 1020.9 0.0
29/08:30pm 12.1 7.8 3.3 55 3.9 SW 15 22 8 12 1020.5 1020.5 0.0
29/08:00pm 11.9 6.7 3.4 56 3.7 WSW 20 26 11 14 1020.1 1020.1 0.0
29/07:30pm 12.5 6.9 3.5 54 4.0 W 22 26 12 14 1019.7 1019.7 0.0
29/07:00pm 12.9 7.7 3.3 52 4.3 WSW 20 30 11 16 1019.5 1019.5 0.0
29/06:30pm 13.3 8.5 2.8 49 4.6 WSW 17 28 9 15 1019.2 1019.2 0.0
29/06:00pm 14.8 11.4 2.0 42 5.6 WNW 9 15 5 8 1018.7 1018.7 0.0
29/05:30pm 14.9 12.0 1.4 40 5.9 WNW 6 7 3 4 1018.4 1018.4 0.0
29/05:00pm 15.8 11.1 2.9 42 5.8 W 17 26 9 14 1018.1 1018.1 0.0
29/04:30pm 16.8 11.5 2.0 37 6.6 W 19 28 10 15 1018.0 1018.0 0.0
29/04:00pm 17.4 11.1 1.8 35 7.0 W 24 37 13 20 1017.8 1017.8 0.0
29/03:30pm 17.7 10.3 2.1 35 7.1 W 30 44 16 24 1017.8 1017.8 0.0
29/03:00pm 18.0 11.3 3.5 38 6.7 W 28 39 15 21 1017.8 1017.8 0.0
29/02:30pm 18.1 11.8 3.9 39 6.7 W 26 37 14 20 1018.0 1018.0 0.0
29/02:00pm 18.2 12.5 4.7 41 6.4 W 24 37 13 20 1018.3 1018.3 0.0
29/01:30pm 18.4 12.4 5.3 42 6.4 W 26 37 14 20 1018.6 1018.6 0.0
29/01:00pm 18.1 14.0 6.0 45 5.9 WSW 17 28 9 15 1019.2 1019.2 0.0
29/12:30pm 17.7 12.2 5.9 46 5.8 WSW 24 37 13 20 1019.7 1019.7 0.0
29/12:00pm 17.5 13.5 6.7 49 5.3 W 17 28 9 15 1020.2 1020.2 0.0
29/11:30am 16.3 13.1 5.0 47 5.4 SW 11 22 6 12 1020.8 1020.8 0.0
29/11:00am 16.1 11.2 5.1 48 5.2 WSW 20 33 11 18 1021.2 1021.2 0.0
29/10:30am 15.9 10.9 6.3 53 4.7 WSW 22 35 12 19 1021.4 1021.4 0.0
29/10:00am 15.5 9.1 5.4 51 4.8 WNW 28 39 15 21 1021.6 1021.6 0.0
29/09:36am 14.9 8.5 5.1 52 4.6 W 28 46 15 25 1021.9 1021.9 0.0
29/09:30am 14.8 10.0 5.6 54 4.4 W 20 32 11 17 1021.9 1021.9 0.0
29/09:00am 14.4 9.7 5.2 54 4.3 W 19 28 10 15 1022.0 1022.0 0.0
29/08:30am 13.8 11.7 6.7 62 3.4 ENE 7 15 4 8 1022.0 1022.0 0.0
29/08:00am 12.2 10.8 7.1 71 2.4 NNW 4 9 2 5 1022.2 1022.2 0.0
29/07:30am 9.2 7.5 8.3 94 0.4 S 7 9 4 5 1022.2 1022.2 0.0
29/07:00am 7.3 5.8 6.9 97 0.2 S 4 7 2 4 1022.2 1022.2 0.0
29/06:30am 6.1 4.2 4.9 92 0.5 SSW 4 7 2 4 1022.0 1022.0 0.0
29/06:00am 7.3 6.0 6.1 92 0.5 WSW 2 11 1 6 1021.7 1021.7 0.0
29/05:30am 8.2 6.9 6.0 86 1.0 SW 2 7 1 4 1021.5 1021.5 0.0
29/05:00am 8.1 7.5 7.2 94 0.4 CALM 0 6 0 3 1021.4 1021.4 0.0
29/04:30am 8.9 8.3 7.4 90 0.7 CALM 0 6 0 3 1021.3 1021.3 0.0
29/04:00am 9.4 8.2 8.2 92 0.6 SW 4 11 2 6 1021.4 1021.4 0.0
29/03:30am 9.9 9.6 8.5 91 0.7 CALM 0 7 0 4 1021.4 1021.4 0.0
29/03:00am 9.8 8.2 8.6 92 0.6 SW 7 9 4 5 1021.7 1021.7 0.0
29/02:30am 9.9 8.2 8.3 90 0.8 SW 7 9 4 5 1021.9 1021.9 0.0
29/02:00am 10.4 7.9 8.3 87 1.0 WSW 11 13 6 7 1022.2 1022.2 0.0
29/01:30am 9.2 7.5 8.3 94 0.4 SW 7 9 4 5 1022.5 1022.5 0.0
29/01:00am 9.2 8.1 8.3 94 0.4 S 4 7 2 4 1022.6 1022.6 0.0
29/12:30am 9.2 7.6 8.1 93 0.5 SSW 6 11 3 6 1022.6 1022.6 0.0
29/12:00am 9.9 8.4 8.3 90 0.8 SW 6 9 3 5 1022.6 1022.6 0.0
 
Date/Time
EST
Temp
°C
App
Temp
°C
Dew
Point
Rel
Hum
%
Delta-T
°C
Wind Press
QNH
hPa
Press
MSL
hPa
Rain
since 9 am
mm
Dir
 
Spd
km/h
Gust
km/h
Spd
kts
Gust
kts
28/11:30pm 11.1 8.8 7.4 78 1.8 W 9 15 5 8 1022.7 1022.7 0.0
28/11:00pm 12.2 12.0 9.0 81 1.6 CALM 0 0 0 0 1022.7 1022.7 0.0
28/10:30pm 12.5 11.1 9.7 83 1.4 E 7 9 4 5 1022.7 1022.7 0.0
28/10:00pm 13.7 12.9 8.3 70 2.7 WSW 2 7 1 4 1022.7 1022.7 0.0
28/09:30pm 13.1 12.0 9.9 81 1.6 WSW 6 9 3 5 1022.7 1022.7 0.0
28/09:00pm 12.8 11.9 11.4 91 0.7 S 7 11 4 6 1022.8 1022.8 0.0
28/08:30pm 13.4 13.4 11.1 86 1.2 S 2 6 1 3 1022.7 1022.7 0.0
28/08:00pm 13.5 12.1 11.0 85 1.3 SSE 9 13 5 7 1022.4 1022.4 0.0
28/07:30pm 13.3 13.3 11.0 86 1.2 W 2 6 1 3 1022.0 1022.0 0.0
28/07:00pm 13.4 12.5 11.3 87 1.1 W 7 11 4 6 1021.8 1021.8 0.0
28/06:30pm 13.6 12.9 10.2 80 1.8 SW 4 7 2 4 1021.4 1021.4 0.0
28/06:00pm 14.3 12.3 10.1 76 2.2 SSW 11 17 6 9 1020.9 1020.9 0.0
28/05:30pm 15.0 12.9 9.8 71 2.7 SSW 11 17 6 9 1020.4 1020.4 0.0
28/05:00pm 15.6 13.0 9.5 67 3.1 SSE 13 19 7 10 1020.1 1020.1 0.0
28/04:30pm 16.2 13.0 9.8 66 3.3 SSE 17 22 9 12 1019.7 1019.7 0.0
28/04:00pm 16.3 11.6 9.3 63 3.6 S 24 33 13 18 1019.5 1019.5 0.0
28/03:30pm 16.2 10.8 9.6 65 3.4 S 28 35 15 19 1019.2 1019.2 0.0
28/03:00pm 17.9 17.0 7.9 52 5.1 S 2 7 1 4 1018.8 1018.8 0.0
28/02:30pm 17.9 15.2 9.0 56 4.6 SSW 13 19 7 10 1018.6 1018.6 0.0
28/02:00pm 17.4 13.6 7.5 52 5.0 S 17 30 9 16 1018.7 1018.7 0.0
28/01:30pm 17.3 14.0 7.9 54 4.8 SSW 15 24 8 13 1018.6 1018.6 0.0
28/01:00pm 17.6 14.1 8.7 56 4.6 WSW 17 28 9 15 1018.8 1018.8 0.0
28/12:30pm 17.2 12.7 8.4 56 4.5 WSW 22 32 12 17 1019.2 1019.2 0.0
28/12:00pm 17.2 12.7 8.4 56 4.5 WSW 22 32 12 17 1019.4 1019.4 0.0
28/11:30am 17.2 12.7 8.6 57 4.4 SW 22 35 12 19 1019.4 1019.4 0.0
28/11:00am 16.4 11.4 7.9 57 4.3 WSW 24 33 13 18 1019.3 1019.3 0.0
28/10:30am 16.0 11.9 8.5 61 3.8 WSW 20 32 11 17 1019.1 1019.1 0.0
28/10:00am 14.8 9.6 8.7 67 3.1 W 26 37 14 20 1019.1 1019.1 0.0
28/09:30am 12.5 7.6 8.6 77 1.9 W 24 28 13 15 1019.0 1019.0 0.0
28/09:00am 11.7 7.2 8.6 81 1.5 W 22 30 12 16 1019.2 1019.2 0.2
28/08:41am 11.4 4.9 8.1 80 1.6 WSW 32 50 17 27 1019.2 1019.2 0.0
28/08:30am 11.7 5.0 7.4 75 2.1 WSW 32 46 17 25 1019.4 1019.4 0.0
28/08:18am 12.1 5.3 6.8 70 2.5 WSW 32 52 17 28 1019.2 1019.2 0.0
28/08:00am 12.9 7.4 5.8 62 3.3 W 24 35 13 19 1018.9 1018.9 0.0
28/07:30am 13.0 6.8 6.1 63 3.3 WSW 28 46 15 25 1017.9 1017.9 0.0
28/07:29am 12.9 6.7 6.0 63 3.3 W 28 46 15 25 1017.9 1017.9 0.0
28/07:00am 12.2 4.6 5.6 64 3.1 WSW 35 44 19 24 1017.3 1017.3 0.0
28/06:34am 11.9 4.8 5.3 64 3.0 WSW 32 50 17 27 1016.7 1016.7 0.0
28/06:30am 11.8 4.7 5.4 65 3.0 WSW 32 43 17 23 1016.7 1016.7 0.0
28/06:02am 12.0 5.6 5.4 64 3.1 WSW 28 52 15 28 1016.3 1016.3 0.0
28/06:00am 12.2 6.2 5.1 62 3.3 WSW 26 52 14 28 1016.2 1016.2 0.0
28/05:59am 12.2 6.6 5.4 63 3.2 WSW 24 52 13 28 1016.2 1016.2 0.0
28/05:30am 11.9 8.0 5.5 65 3.0 W 15 24 8 13 1016.3 1016.3 0.0
28/05:00am 12.2 7.4 5.6 64 3.1 WSW 20 33 11 18 1016.1 1016.1 0.0
28/04:30am 12.5 9.1 5.9 64 3.1 WSW 13 22 7 12 1015.8 1015.8 0.0
28/04:00am 11.8 8.4 5.9 67 2.8 WSW 13 20 7 11 1015.7 1015.7 0.0
28/03:30am 12.1 7.9 5.9 66 2.9 WSW 17 32 9 17 1015.6 1015.6 0.0
28/03:00am 12.4 6.2 6.0 65 3.0 WSW 28 44 15 24 1015.6 1015.6 0.0
28/02:30am 12.3 6.0 5.9 65 3.0 WSW 28 39 15 21 1015.7 1015.7 0.0
28/02:00am 12.3 6.2 6.4 67 2.8 WSW 28 35 15 19 1015.6 1015.6 0.0
28/01:30am 12.4 6.3 6.7 68 2.7 WSW 28 33 15 18 1016.1 1016.1 0.0
28/01:00am 12.6 6.9 6.9 68 2.7 W 26 33 14 18 1016.2 1016.2 0.0
28/12:32am 13.1 5.7 6.9 66 3.0 W 35 56 19 30 1015.9 1015.9 0.0
28/12:30am 13.1 6.1 6.7 65 3.1 W 33 48 18 26 1015.8 1015.8 0.0
28/12:02am 13.2 6.4 6.8 65 3.1 WSW 32 50 17 27 1016.1 1016.1 0.0
28/12:00am 13.3 5.9 6.6 64 3.2 WSW 35 50 19 27 1016.1 1016.1 0.0
 
Date/Time
EST
Temp
°C
App
Temp
°C
Dew
Point
Rel
Hum
%
Delta-T
°C
Wind Press
QNH
hPa
Press
MSL
hPa
Rain
since 9 am
mm
Dir
 
Spd
km/h
Gust
km/h
Spd
kts
Gust
kts
27/11:49pm 13.2 6.7 6.3 63 3.3 W 30 50 16 27 1016.0 1016.0 0.0
27/11:30pm 13.2 6.3 6.5 64 3.2 W 32 43 17 23 1016.1 1016.1 0.0
27/11:00pm 13.0 7.2 6.1 63 3.3 W 26 41 14 22 1016.2 1016.2 0.0
27/10:30pm 12.9 6.3 6.0 63 3.3 WSW 30 50 16 27 1016.5 1016.5 0.0
27/10:08pm 13.0 6.4 6.1 63 3.3 WSW 30 48 16 26 1016.5 1016.5 0.0
27/10:00pm 13.2 6.6 6.1 62 3.4 WSW 30 46 16 25 1016.6 1016.6 0.0
27/09:59pm 13.1 6.9 6.2 63 3.3 WSW 28 46 15 25 1016.6 1016.6 0.0
27/09:30pm 13.6 7.4 6.2 61 3.5 W 28 41 15 22 1016.5 1016.5 0.0
27/09:00pm 13.3 9.0 7.1 66 3.0 W 19 30 10 16 1016.5 1016.5 0.0
27/08:30pm 13.9 9.1 7.4 65 3.2 W 22 33 12 18 1016.6 1016.6 0.0
27/08:00pm 14.2 9.4 7.5 64 3.3 W 22 30 12 16 1016.7 1016.7 0.0
27/07:30pm 14.2 9.9 7.7 65 3.2 W 20 28 11 15 1016.4 1016.4 0.0
27/07:00pm 14.3 11.2 7.4 63 3.4 W 13 19 7 10 1016.2 1016.2 0.0
27/06:30pm 15.0 9.9 7.5 61 3.7 W 24 35 13 19 1015.8 1015.8 0.0
27/06:00pm 15.4 10.1 8.4 63 3.5 WNW 26 35 14 19 1015.7 1015.7 0.0
27/05:30pm 16.5 10.2 7.4 55 4.5 WNW 30 39 16 21 1015.4 1015.4 0.0
27/05:15pm 17.0 10.1 7.4 53 4.8 WNW 33 48 18 26 1015.1 1015.1 0.0
27/05:00pm 17.9 13.8 8.7 55 4.8 W 20 28 11 15 1015.0 1015.0 0.0
27/04:30pm 18.3 14.0 9.4 56 4.7 W 22 28 12 15 1014.8 1014.8 0.0
27/04:00pm 18.6 15.5 10.4 59 4.4 WNW 17 22 9 12 1014.8 1014.8 0.0
27/03:30pm 18.4 17.3 13.0 71 3.0 ENE 11 15 6 8 1014.6 1014.6 0.0
27/03:00pm 18.4 16.3 13.7 74 2.7 ENE 17 20 9 11 1014.7 1014.7 0.0
27/02:30pm 18.1 16.8 13.6 75 2.6 NE 13 17 7 9 1014.8 1014.8 0.0
27/02:00pm 18.3 16.1 13.4 73 2.8 NE 17 19 9 10 1015.0 1015.0 0.0

Other Formats:

Comma delimited format used in spreadsheet applications
http://www.bom.gov.au/fwo/IDN60801/IDN60801.95748.axf

JavaScript Object Notation format (JSON) in row-major order
http://www.bom.gov.au/fwo/IDN60801/IDN60801.95748.json